createdAt,value
2017-10-03T00:00:16.985Z,14.92
2017-10-03T00:02:45.514Z,15.11
2017-10-03T00:05:12.829Z,15.17
2017-10-03T00:07:39.954Z,15.05
2017-10-03T00:10:08.180Z,15.29
2017-10-03T00:12:35.039Z,15.27
2017-10-03T00:15:04.332Z,15.24
2017-10-03T00:17:31.232Z,15.18
2017-10-03T00:19:58.048Z,14.82
2017-10-03T00:22:25.834Z,14.84
2017-10-03T00:24:53.528Z,14.61
2017-10-03T00:27:20.403Z,14.84
2017-10-03T00:29:47.278Z,14.36
2017-10-03T00:32:14.205Z,15.10
2017-10-03T00:34:42.484Z,14.63
2017-10-03T00:37:10.065Z,14.90
2017-10-03T00:39:36.988Z,14.66
2017-10-03T00:42:04.166Z,15.11
2017-10-03T00:44:31.106Z,14.85
2017-10-03T00:46:58.331Z,14.41
2017-10-03T00:49:26.081Z,15.01
2017-10-03T00:51:53.770Z,15.10
2017-10-03T00:54:21.486Z,14.93
2017-10-03T00:56:49.122Z,14.70
2017-10-03T00:59:16.066Z,14.75
2017-10-03T01:01:42.983Z,14.57
2017-10-03T01:04:09.813Z,14.46
2017-10-03T01:06:36.724Z,15.05
2017-10-03T01:09:05.084Z,14.62
2017-10-03T01:11:31.968Z,14.74
2017-10-03T01:13:59.613Z,14.25
2017-10-03T01:16:26.462Z,14.80
2017-10-03T01:18:53.326Z,14.52
2017-10-03T01:21:20.245Z,14.91
2017-10-03T01:23:47.976Z,14.74
2017-10-03T01:26:14.903Z,14.77
2017-10-03T01:28:42.188Z,14.77
2017-10-03T01:31:08.996Z,14.71
2017-10-03T01:33:35.833Z,14.31
2017-10-03T01:36:02.670Z,13.94
2017-10-03T01:38:29.512Z,13.93
2017-10-03T01:40:56.446Z,14.07
2017-10-03T01:43:23.291Z,14.32
2017-10-03T01:45:50.195Z,14.49
2017-10-03T01:48:17.797Z,13.97
2017-10-03T01:50:44.671Z,14.00
2017-10-03T01:53:11.658Z,13.98
2017-10-03T01:55:38.535Z,14.28
2017-10-03T01:58:05.371Z,13.96
2017-10-03T02:00:32.159Z,14.23
2017-10-03T02:02:59.010Z,14.02
2017-10-03T02:05:25.842Z,14.57
2017-10-03T02:07:52.636Z,14.59
2017-10-03T02:10:19.533Z,14.56
2017-10-03T02:12:46.364Z,14.45
2017-10-03T02:15:13.208Z,14.13
2017-10-03T02:17:40.024Z,14.60
2017-10-03T02:20:06.830Z,14.18
2017-10-03T02:22:33.758Z,14.28
2017-10-03T02:25:00.604Z,14.40
2017-10-03T02:27:27.434Z,14.51
2017-10-03T02:29:54.998Z,14.42
2017-10-03T02:32:21.875Z,13.91
2017-10-03T02:34:49.448Z,14.00
2017-10-03T02:37:16.360Z,14.09
2017-10-03T02:39:43.190Z,14.32
2017-10-03T02:42:10.843Z,13.78
2017-10-03T02:44:37.663Z,14.32
2017-10-03T02:47:04.500Z,14.23
2017-10-03T02:49:31.342Z,13.80
2017-10-03T02:51:58.921Z,14.46
2017-10-03T02:54:26.554Z,14.11
2017-10-03T02:56:53.373Z,14.12
2017-10-03T02:59:21.031Z,14.11
2017-10-03T03:01:48.681Z,14.39
2017-10-03T03:04:15.529Z,13.86
2017-10-03T03:06:42.515Z,14.06
2017-10-03T03:09:09.472Z,14.23
2017-10-03T03:11:36.316Z,14.00
2017-10-03T03:14:03.191Z,14.10
2017-10-03T03:16:30.087Z,14.14
2017-10-03T03:18:56.989Z,14.04
2017-10-03T03:21:23.835Z,13.68
2017-10-03T03:23:50.716Z,13.77
2017-10-03T03:26:17.594Z,14.07
2017-10-03T03:28:44.435Z,13.77
2017-10-03T03:31:11.248Z,14.15
2017-10-03T03:33:38.074Z,14.18
2017-10-03T03:36:04.901Z,13.87
2017-10-03T03:38:31.757Z,14.11
2017-10-03T03:40:59.362Z,14.09
2017-10-03T03:43:26.177Z,14.07
2017-10-03T03:45:53.163Z,13.85
2017-10-03T03:48:21.419Z,13.98
2017-10-03T03:50:48.228Z,13.84
2017-10-03T03:53:15.037Z,14.05
2017-10-03T03:55:41.879Z,14.12
2017-10-03T03:58:08.721Z,13.74
2017-10-03T04:00:35.603Z,13.76
2017-10-03T04:03:02.469Z,13.91
2017-10-03T04:05:29.296Z,13.88
2017-10-03T04:07:56.111Z,14.12
2017-10-03T04:10:22.892Z,13.59
2017-10-03T04:12:50.494Z,13.35
2017-10-03T04:15:17.353Z,13.76
2017-10-03T04:17:44.243Z,13.78
2017-10-03T04:20:11.134Z,13.88
2017-10-03T04:22:38.128Z,13.28
2017-10-03T04:25:04.961Z,13.53
2017-10-03T04:27:31.764Z,13.78
2017-10-03T04:29:58.593Z,13.99
2017-10-03T04:32:25.405Z,13.74
2017-10-03T04:34:52.214Z,13.42
2017-10-03T04:37:19.065Z,13.96
2017-10-03T04:39:45.907Z,13.76
2017-10-03T04:42:12.714Z,13.98
2017-10-03T04:44:39.530Z,13.79
2017-10-03T04:47:06.367Z,13.87
2017-10-03T04:49:33.223Z,14.00
2017-10-03T04:52:00.028Z,14.03
2017-10-03T04:54:26.850Z,13.47
2017-10-03T04:56:53.669Z,13.69
2017-10-03T04:59:21.246Z,13.55
2017-10-03T05:01:48.815Z,14.13
2017-10-03T05:04:15.674Z,13.71
2017-10-03T05:06:42.472Z,13.40
2017-10-03T05:09:09.315Z,13.84
2017-10-03T05:11:36.945Z,13.77
2017-10-03T05:14:03.765Z,13.27
2017-10-03T05:16:30.683Z,13.62
2017-10-03T05:18:57.606Z,13.65
2017-10-03T05:21:24.439Z,13.87
2017-10-03T05:23:52.077Z,13.89
2017-10-03T05:26:19.178Z,13.58
2017-10-03T05:28:46.793Z,13.87
2017-10-03T05:31:13.607Z,13.83
2017-10-03T05:33:40.508Z,13.41
2017-10-03T05:36:07.306Z,13.41
2017-10-03T05:38:34.189Z,13.66
2017-10-03T05:41:01.145Z,13.29
2017-10-03T05:43:27.935Z,13.72
2017-10-03T05:45:54.773Z,13.26
2017-10-03T05:48:21.631Z,13.55
2017-10-03T05:50:49.211Z,13.55
2017-10-03T05:53:16.024Z,13.86
2017-10-03T05:55:42.852Z,13.73
2017-10-03T05:58:10.470Z,13.83
2017-10-03T06:00:38.050Z,13.55
2017-10-03T06:03:04.864Z,13.50
2017-10-03T06:05:32.544Z,13.64
2017-10-03T06:08:00.134Z,13.71
2017-10-03T06:10:27.718Z,13.69
2017-10-03T06:12:54.580Z,13.39
2017-10-03T06:15:21.476Z,13.53
2017-10-03T06:17:49.087Z,13.82
2017-10-03T06:20:15.895Z,13.66
2017-10-03T06:22:42.716Z,13.52
2017-10-03T06:25:10.297Z,13.44
2017-10-03T06:27:37.899Z,13.71
2017-10-03T06:30:04.806Z,13.59
2017-10-03T06:32:31.674Z,13.73
2017-10-03T06:34:58.574Z,13.90
2017-10-03T06:37:25.446Z,13.48
2017-10-03T06:39:52.319Z,13.54
2017-10-03T06:42:19.105Z,13.27
2017-10-03T06:44:45.982Z,13.70
2017-10-03T06:47:14.157Z,13.37
2017-10-03T06:49:41.082Z,13.62
2017-10-03T06:52:07.942Z,13.64
2017-10-03T06:54:34.803Z,13.38
2017-10-03T06:57:01.619Z,13.61
2017-10-03T06:59:28.554Z,13.59
2017-10-03T07:01:55.415Z,13.67
2017-10-03T07:04:22.328Z,13.71
2017-10-03T07:06:49.213Z,13.54
2017-10-03T07:09:16.083Z,13.62
2017-10-03T07:11:42.985Z,13.70
2017-10-03T07:14:09.935Z,13.82
2017-10-03T07:16:36.750Z,13.79
2017-10-03T07:19:04.399Z,13.73
2017-10-03T07:21:31.303Z,13.55
2017-10-03T07:23:58.295Z,13.60
2017-10-03T07:26:25.331Z,13.78
2017-10-03T07:28:52.205Z,13.62
2017-10-03T07:31:20.375Z,13.81
2017-10-03T07:33:47.975Z,13.72
2017-10-03T07:36:14.892Z,13.78
2017-10-03T07:38:42.013Z,13.94
2017-10-03T07:41:08.886Z,13.75
2017-10-03T07:43:35.834Z,14.06
2017-10-03T07:46:02.705Z,14.06
2017-10-03T07:48:29.565Z,13.85
2017-10-03T07:50:56.431Z,13.98
2017-10-03T07:53:23.275Z,14.02
2017-10-03T07:55:50.505Z,14.12
2017-10-03T07:58:17.317Z,13.96
2017-10-03T08:00:44.242Z,13.93
2017-10-03T08:03:11.883Z,14.08
2017-10-03T08:05:38.768Z,14.16
2017-10-03T08:08:05.721Z,13.94
2017-10-03T08:10:33.857Z,13.93
2017-10-03T08:13:00.731Z,14.42
2017-10-03T08:15:27.620Z,13.93
2017-10-03T08:17:54.457Z,14.19
2017-10-03T08:20:21.312Z,14.25
2017-10-03T08:22:48.173Z,14.48
2017-10-03T08:25:15.009Z,14.48
2017-10-03T08:27:42.606Z,14.45
2017-10-03T08:30:09.520Z,14.39
2017-10-03T08:32:36.406Z,14.56
2017-10-03T08:35:03.997Z,14.23
2017-10-03T08:37:31.583Z,14.17
2017-10-03T08:39:58.462Z,14.09
2017-10-03T08:42:25.346Z,14.34
2017-10-03T08:44:52.228Z,14.37
2017-10-03T08:47:19.113Z,14.26
2017-10-03T08:49:46.711Z,14.43
2017-10-03T08:52:13.575Z,14.32
2017-10-03T08:54:40.426Z,14.68
2017-10-03T08:57:07.272Z,14.78
2017-10-03T08:59:34.845Z,14.65
2017-10-03T09:02:01.658Z,14.78
2017-10-03T09:04:28.492Z,14.82
2017-10-03T09:06:55.396Z,14.52
2017-10-03T09:09:22.223Z,14.93
2017-10-03T09:11:49.093Z,14.69
2017-10-03T09:14:15.968Z,14.88
2017-10-03T09:16:42.869Z,14.86
2017-10-03T09:19:09.691Z,14.73
2017-10-03T09:21:36.546Z,14.92
2017-10-03T09:24:03.402Z,15.07
2017-10-03T09:26:30.294Z,15.10
2017-10-03T09:28:57.156Z,15.30
2017-10-03T09:31:24.061Z,15.41
2017-10-03T09:33:50.939Z,15.37
2017-10-03T09:36:17.854Z,15.14
2017-10-03T09:38:44.733Z,15.05
2017-10-03T09:41:12.315Z,14.76
2017-10-03T09:56:41.841Z,15.02
2017-10-03T09:59:08.790Z,14.86
2017-10-03T10:01:35.632Z,14.86
2017-10-03T10:04:02.530Z,15.26
2017-10-03T10:06:29.468Z,15.42
2017-10-03T10:08:56.359Z,15.18
2017-10-03T10:11:23.176Z,15.47
2017-10-03T10:13:50.084Z,15.35
2017-10-03T10:16:16.964Z,15.70
2017-10-03T10:18:43.932Z,15.84
2017-10-03T10:21:10.799Z,16.00
2017-10-03T10:23:37.716Z,15.90
2017-10-03T10:26:05.281Z,15.76
2017-10-03T10:28:32.183Z,15.98
2017-10-03T10:30:59.070Z,15.65
2017-10-03T10:33:25.971Z,15.22
2017-10-03T10:35:52.835Z,15.71
2017-10-03T10:38:19.711Z,15.66
2017-10-03T10:40:46.547Z,16.08
2017-10-03T10:43:13.382Z,16.20
2017-10-03T10:45:40.976Z,16.05
2017-10-03T10:48:08.619Z,16.19
2017-10-03T10:50:35.436Z,15.91
2017-10-03T10:53:02.401Z,16.14
2017-10-03T10:55:29.219Z,16.13
2017-10-03T10:57:56.100Z,16.37
2017-10-03T11:00:22.950Z,16.51
2017-10-03T11:02:50.597Z,16.65
2017-10-03T11:05:17.451Z,16.61
2017-10-03T11:07:44.342Z,16.80
2017-10-03T11:10:11.171Z,16.73
2017-10-03T11:12:38.043Z,16.15
2017-10-03T11:15:04.905Z,16.60
2017-10-03T11:17:31.879Z,16.79
2017-10-03T11:19:58.726Z,16.67
2017-10-03T11:22:25.731Z,17.04
2017-10-03T11:24:53.502Z,16.94
2017-10-03T11:27:20.383Z,16.94
2017-10-03T11:29:47.578Z,17.04
2017-10-03T11:32:14.837Z,16.73
2017-10-03T11:34:41.694Z,16.81
2017-10-03T11:37:08.569Z,16.76
2017-10-03T11:39:35.522Z,16.89
2017-10-03T11:42:02.389Z,16.92
2017-10-03T11:44:29.245Z,17.01
2017-10-03T11:46:56.080Z,17.02
2017-10-03T11:49:24.401Z,16.92
2017-10-03T11:51:52.925Z,16.83
2017-10-03T11:54:22.443Z,16.46
2017-10-03T11:56:49.714Z,16.60
2017-10-03T11:59:16.914Z,16.40
2017-10-03T12:01:45.075Z,16.47
2017-10-03T12:04:14.523Z,16.52
2017-10-03T12:06:43.386Z,16.32
2017-10-03T12:09:12.685Z,16.44
2017-10-03T12:11:45.907Z,16.60
2017-10-03T12:14:16.338Z,16.64
2017-10-03T12:16:43.928Z,16.79
2017-10-03T12:19:11.827Z,16.95
2017-10-03T12:21:38.776Z,16.74
2017-10-03T12:24:07.033Z,16.48
2017-10-03T12:26:35.258Z,16.81
2017-10-03T12:29:02.381Z,16.68
2017-10-03T12:31:29.262Z,16.67
2017-10-03T12:33:57.331Z,16.46
2017-10-03T12:36:24.230Z,16.40
2017-10-03T12:38:51.901Z,16.16
2017-10-03T12:41:18.826Z,16.18
2017-10-03T12:43:45.671Z,15.75
2017-10-03T12:46:12.492Z,15.34
2017-10-03T12:48:40.052Z,15.26
2017-10-03T12:51:06.917Z,15.27
2017-10-03T12:53:33.791Z,15.57
2017-10-03T12:56:02.253Z,15.49
2017-10-03T12:58:29.919Z,15.62
2017-10-03T13:00:56.739Z,15.85
2017-10-03T13:03:23.684Z,15.65
2017-10-03T13:05:50.527Z,15.75
2017-10-03T13:08:17.489Z,15.51
2017-10-03T13:10:44.683Z,15.57
2017-10-03T13:13:11.770Z,15.71
2017-10-03T13:15:38.625Z,15.40
2017-10-03T13:18:05.440Z,15.82
2017-10-03T13:20:32.298Z,15.95
2017-10-03T13:22:59.277Z,15.97
2017-10-03T13:25:26.082Z,15.85
2017-10-03T13:27:52.998Z,16.03
2017-10-03T13:30:19.850Z,16.38
2017-10-03T13:32:46.743Z,16.40
2017-10-03T13:35:14.634Z,16.22
2017-10-03T13:37:41.709Z,16.04
2017-10-03T13:40:08.766Z,16.20
2017-10-03T13:42:35.736Z,16.25
2017-10-03T13:45:02.781Z,15.97
2017-10-03T13:47:29.665Z,15.89
2017-10-03T13:49:56.669Z,15.85
2017-10-03T13:52:23.675Z,15.78
2017-10-03T13:54:51.276Z,15.61
2017-10-03T13:57:18.215Z,15.58
2017-10-03T13:59:45.804Z,15.78
2017-10-03T14:02:13.371Z,16.00
2017-10-03T14:04:40.980Z,15.57
2017-10-03T14:07:07.844Z,16.11
2017-10-03T14:09:34.696Z,16.32
2017-10-03T14:12:01.578Z,15.98
2017-10-03T14:14:28.426Z,16.28
2017-10-03T14:16:55.242Z,16.39
2017-10-03T14:19:22.542Z,16.52
2017-10-03T14:21:49.506Z,16.39
2017-10-03T14:24:16.405Z,16.75
2017-10-03T14:26:43.349Z,16.81
2017-10-03T14:29:10.292Z,16.62
2017-10-03T14:31:37.894Z,16.56
2017-10-03T14:34:04.729Z,16.34
2017-10-03T14:36:32.343Z,16.22
2017-10-03T14:38:59.380Z,16.26
2017-10-03T14:41:26.975Z,16.25
2017-10-03T14:43:53.813Z,16.25
2017-10-03T14:46:20.639Z,16.23
2017-10-03T14:48:47.479Z,16.00
2017-10-03T14:51:14.405Z,15.97
2017-10-03T14:53:41.406Z,16.03
2017-10-03T14:56:08.483Z,16.07
2017-10-03T14:58:35.343Z,15.76
2017-10-03T15:01:02.238Z,16.05
2017-10-03T15:03:29.135Z,16.31
2017-10-03T15:05:56.006Z,16.48
2017-10-03T15:08:22.890Z,16.69
2017-10-03T15:10:49.801Z,16.55
2017-10-03T15:13:17.394Z,16.51
2017-10-03T15:15:45.001Z,16.77
2017-10-03T15:18:11.841Z,16.73
2017-10-03T15:20:38.800Z,16.78
2017-10-03T15:23:05.800Z,16.68
2017-10-03T15:25:32.887Z,16.89
2017-10-03T15:27:59.788Z,16.50
2017-10-03T15:30:27.433Z,16.57
2017-10-03T15:32:54.373Z,16.36
2017-10-03T15:35:21.276Z,16.55
2017-10-03T15:37:48.880Z,16.67
2017-10-03T15:40:16.085Z,16.63
2017-10-03T15:42:43.013Z,16.72
2017-10-03T15:45:09.873Z,16.76
2017-10-03T15:47:36.824Z,16.48
2017-10-03T15:50:04.471Z,16.53
2017-10-03T16:05:22.785Z,16.07
2017-10-03T16:07:49.761Z,16.01
2017-10-03T16:10:16.629Z,15.97
2017-10-03T16:12:44.272Z,15.53
2017-10-03T16:15:12.000Z,15.89
2017-10-03T16:17:40.072Z,15.95
2017-10-03T16:20:07.766Z,15.85
2017-10-03T16:22:36.490Z,16.02
2017-10-03T16:25:04.514Z,15.49
2017-10-03T16:27:31.776Z,15.68
2017-10-03T16:29:58.760Z,15.75
2017-10-03T16:32:26.073Z,15.45
2017-10-03T16:34:55.125Z,15.49
2017-10-03T16:37:22.271Z,15.51
2017-10-03T16:39:49.539Z,15.55
2017-10-03T16:42:16.563Z,15.12
2017-10-03T16:44:43.622Z,15.44
2017-10-03T16:47:11.497Z,15.08
2017-10-03T16:49:38.433Z,14.97
2017-10-03T16:52:05.373Z,15.03
2017-10-03T16:54:32.932Z,14.94
2017-10-03T16:57:00.183Z,15.16
2017-10-03T16:59:27.955Z,15.07
2017-10-03T17:01:56.142Z,14.88
2017-10-03T17:04:23.764Z,14.68
2017-10-03T17:06:51.666Z,14.60
2017-10-03T17:09:18.534Z,14.41
2017-10-03T17:11:45.410Z,14.52
2017-10-03T17:14:12.275Z,14.59
2017-10-03T17:16:39.147Z,14.85
2017-10-03T17:21:39.755Z,14.25
2017-10-03T17:24:06.849Z,14.20
2017-10-03T17:26:34.428Z,14.59
2017-10-03T17:29:02.160Z,14.17
2017-10-03T17:31:29.021Z,14.60
2017-10-03T17:33:55.916Z,14.20
2017-10-03T17:36:22.884Z,14.37
2017-10-03T17:38:49.895Z,13.50
2017-10-03T17:41:16.711Z,13.25
2017-10-03T17:43:44.420Z,13.37
2017-10-03T17:46:11.271Z,12.80
2017-10-03T17:48:38.840Z,13.18
2017-10-03T17:51:06.393Z,12.97
2017-10-03T17:53:33.239Z,12.88
2017-10-03T17:56:00.582Z,13.02
2017-10-03T17:58:27.513Z,12.66
2017-10-03T18:00:55.698Z,13.35
2017-10-03T18:03:24.141Z,12.79
2017-10-03T18:05:51.910Z,12.54
2017-10-03T18:08:19.972Z,12.50
2017-10-03T18:10:47.993Z,12.95
2017-10-03T18:13:15.214Z,13.03
2017-10-03T18:15:44.646Z,12.60
2017-10-03T18:18:13.509Z,12.87
2017-10-03T18:20:41.861Z,12.67
2017-10-03T18:23:10.243Z,12.65
2017-10-03T18:25:39.058Z,12.29
2017-10-03T18:28:08.064Z,12.52
2017-10-03T18:30:36.937Z,12.49
2017-10-03T18:33:05.910Z,12.56
2017-10-03T18:35:35.209Z,12.60
2017-10-03T18:38:04.120Z,12.33
2017-10-03T18:40:33.342Z,12.17
2017-10-03T18:43:02.354Z,11.97
2017-10-03T18:45:31.956Z,12.18
2017-10-03T18:48:00.740Z,12.34
2017-10-03T18:50:29.736Z,12.56
2017-10-03T18:52:58.794Z,12.48
2017-10-03T18:55:27.611Z,12.53
2017-10-03T18:57:57.308Z,12.85
2017-10-03T19:00:26.510Z,12.47
2017-10-03T19:02:55.277Z,12.85
2017-10-03T19:05:24.154Z,12.62
2017-10-03T19:07:53.757Z,12.59
2017-10-03T19:10:22.748Z,12.94
2017-10-03T19:12:51.535Z,12.69
2017-10-03T19:15:20.028Z,13.17
2017-10-03T19:17:48.897Z,13.08
2017-10-03T19:20:17.385Z,13.18
2017-10-03T19:22:46.131Z,13.32
2017-10-03T19:25:15.683Z,13.42
2017-10-03T19:27:44.270Z,13.30
2017-10-03T19:30:13.834Z,12.86
2017-10-03T19:32:41.070Z,13.06
2017-10-03T19:35:08.547Z,12.93
2017-10-03T19:37:35.640Z,13.05
2017-10-03T19:40:02.702Z,13.26
2017-10-03T19:42:29.841Z,13.19
2017-10-03T19:44:56.771Z,13.43
2017-10-03T19:47:24.395Z,12.94
2017-10-03T19:49:51.311Z,13.20
2017-10-03T19:52:18.963Z,13.23
2017-10-03T19:54:45.791Z,13.24
2017-10-03T19:57:12.644Z,13.06
2017-10-03T19:59:39.611Z,13.48
2017-10-03T20:02:06.535Z,13.44
2017-10-03T20:04:34.186Z,13.18
2017-10-03T20:07:01.046Z,13.50
2017-10-03T20:09:28.035Z,13.57
2017-10-03T20:11:55.740Z,13.28
2017-10-03T20:14:22.632Z,13.20
2017-10-03T20:16:49.487Z,13.12
2017-10-03T20:19:16.323Z,13.28
2017-10-03T20:21:43.341Z,13.54
2017-10-03T20:24:10.235Z,13.59
2017-10-03T20:26:37.825Z,13.57
2017-10-03T20:29:05.455Z,13.35
2017-10-03T20:31:32.328Z,13.14
2017-10-03T20:33:59.238Z,13.20
2017-10-03T20:36:26.098Z,13.42
2017-10-03T20:38:53.038Z,13.54
2017-10-03T20:41:20.653Z,13.42
2017-10-03T20:43:47.734Z,12.55
2017-10-03T20:46:14.759Z,12.98
2017-10-03T20:48:42.500Z,13.05
2017-10-03T20:51:09.353Z,13.08
2017-10-03T20:53:36.399Z,13.14
2017-10-03T20:56:04.717Z,13.16
2017-10-03T20:58:31.487Z,12.75
2017-10-03T21:00:58.324Z,12.78
2017-10-03T21:03:25.656Z,12.53
2017-10-03T21:05:52.688Z,12.18
2017-10-03T21:08:20.309Z,11.89
2017-10-03T21:10:47.173Z,12.32
2017-10-03T21:13:14.052Z,12.24
2017-10-03T21:15:40.860Z,12.86
2017-10-03T21:18:07.679Z,12.80
2017-10-03T21:20:34.560Z,12.74
2017-10-03T21:23:01.440Z,12.78
2017-10-03T21:25:28.355Z,12.71
2017-10-03T21:27:55.176Z,12.75
2017-10-03T21:30:22.036Z,13.24
2017-10-03T21:32:49.685Z,13.27
2017-10-03T21:35:16.558Z,13.28
2017-10-03T21:37:43.546Z,13.26
2017-10-03T21:40:11.181Z,13.21
2017-10-03T21:56:10.490Z,13.15
2017-10-03T21:58:38.080Z,12.88
2017-10-03T22:01:04.975Z,13.06
2017-10-03T22:03:31.894Z,13.04
2017-10-03T22:05:59.543Z,12.79
2017-10-03T22:08:26.965Z,12.89
2017-10-03T22:10:53.803Z,13.06
2017-10-03T22:13:21.410Z,12.92
2017-10-03T22:15:48.242Z,13.09
2017-10-03T22:18:15.781Z,13.11
2017-10-03T22:20:42.637Z,12.88
2017-10-03T22:23:14.920Z,12.77
2017-10-03T22:25:41.805Z,13.25
2017-10-03T22:28:08.634Z,13.21
2017-10-03T22:30:35.512Z,13.27
2017-10-03T22:33:02.411Z,13.27
2017-10-03T22:35:30.132Z,13.03
2017-10-03T22:37:56.989Z,13.26
2017-10-03T22:40:23.809Z,13.12
2017-10-03T22:42:50.634Z,13.37
2017-10-03T22:45:17.519Z,13.41
2017-10-03T22:47:45.329Z,13.20
2017-10-03T22:50:16.133Z,13.17
2017-10-03T22:52:52.605Z,13.07
2017-10-03T22:55:20.175Z,13.34
2017-10-03T22:57:50.560Z,13.40
2017-10-03T23:00:17.482Z,13.24
2017-10-03T23:02:44.335Z,13.41
2017-10-03T23:05:11.183Z,13.09
2017-10-03T23:07:38.597Z,13.31
2017-10-03T23:10:06.417Z,13.14
2017-10-03T23:12:34.450Z,13.31
2017-10-03T23:15:01.286Z,13.02
2017-10-03T23:17:28.170Z,13.19
2017-10-03T23:19:55.015Z,13.22
2017-10-03T23:22:21.822Z,13.15
2017-10-03T23:24:48.745Z,13.28
2017-10-03T23:27:15.607Z,13.25
2017-10-03T23:29:42.442Z,13.23
2017-10-03T23:32:10.042Z,13.14
2017-10-03T23:34:36.856Z,13.00
2017-10-03T23:37:03.749Z,12.99
2017-10-03T23:39:31.373Z,13.03
2017-10-03T23:41:58.240Z,12.97
2017-10-03T23:44:25.116Z,12.94
2017-10-03T23:46:51.973Z,12.77
2017-10-03T23:49:18.814Z,13.18
2017-10-03T23:51:45.706Z,13.17
2017-10-03T23:54:12.561Z,12.80
2017-10-03T23:56:39.519Z,12.93
2017-10-03T23:59:06.380Z,12.99
